Time;durP1;ratioP1;P1;durP2;ratioP2;P2;SDS_P1;SDS_P2;PMS_P1;PMS_P2;Temp;Humidity;BMP_temperature;BMP_pressure;BME280_temperature;BME280_humidity;BME280_pressure;Samples;Min_cycle;Max_cycle;Signal;HPM_P1;HPM_P2
2023/10/15 00:01:57;;;;;;;9.13;2.77;;;8.70;39.50;;;;;;4986704;28;20488;-57
2023/10/15 00:04:24;;;;;;;4.97;2.23;;;8.60;39.40;;;;;;4985375;28;20465;-57
2023/10/15 00:06:51;;;;;;;9.57;2.70;;;8.60;41.00;;;;;;4986881;28;20540;-57
2023/10/15 00:09:17;;;;;;;14.23;3.23;;;8.60;43.20;;;;;;4991388;28;20492;-56
2023/10/15 00:11:44;;;;;;;10.40;2.87;;;8.60;41.50;;;;;;4989244;28;20596;-56
2023/10/15 00:14:12;;;;;;;11.80;3.07;;;8.60;42.80;;;;;;4990593;28;20943;-58
2023/10/15 00:16:38;;;;;;;12.13;3.37;;;8.60;34.70;;;;;;4987351;28;20488;-58
2023/10/15 00:19:10;;;;;;;12.80;3.10;;;8.60;36.50;;;;;;4991384;28;20813;-57
2023/10/15 00:21:37;;;;;;;11.03;2.83;;;8.50;37.10;;;;;;4987582;28;20893;-58
2023/10/15 00:24:07;;;;;;;9.73;3.07;;;8.50;38.70;;;;;;4991069;28;20541;-59
2023/10/15 00:26:35;;;;;;;13.60;3.80;;;8.50;36.50;;;;;;4982842;28;20499;-57
2023/10/15 00:29:01;;;;;;;8.03;2.27;;;8.50;38.70;;;;;;4994477;28;20467;-57
2023/10/15 00:31:29;;;;;;;7.53;2.70;;;8.50;41.40;;;;;;4988939;28;20452;-56
2023/10/15 00:33:56;;;;;;;11.37;3.20;;;8.50;43.30;;;;;;4997968;28;20498;-58
2023/10/15 00:36:23;;;;;;;14.20;2.27;;;8.50;43.30;;;;;;4991812;28;20483;-57
2023/10/15 00:38:49;;;;;;;12.47;3.43;;;8.50;43.30;;;;;;4989809;28;21035;-58
2023/10/15 00:41:16;;;;;;;8.53;3.40;;;8.50;43.70;;;;;;4990373;28;20484;-58
2023/10/15 00:43:54;;;;;;;8.20;2.80;;;8.50;40.20;;;;;;4991104;28;20472;-57
2023/10/15 00:46:22;;;;;;;13.97;3.27;;;8.40;41.50;;;;;;4983532;28;20472;-57
2023/10/15 00:48:51;;;;;;;9.07;2.70;;;8.40;40.40;;;;;;4990973;28;20473;-56
2023/10/15 00:51:20;;;;;;;16.00;2.60;;;8.40;36.50;;;;;;4995342;28;20464;-57
2023/10/15 00:53:50;;;;;;;10.63;2.73;;;8.30;41.30;;;;;;5005472;28;20475;-58
2023/10/15 00:56:19;;;;;;;16.60;3.27;;;8.30;36.20;;;;;;4996230;28;20476;-57
2023/10/15 00:59:08;;;;;;;19.80;3.77;;;8.30;36.50;;;;;;5005236;28;20467;-57
2023/10/15 01:01:37;;;;;;;15.90;3.20;;;8.30;35.10;;;;;;5009283;28;20499;-57
2023/10/15 01:04:06;;;;;;;8.33;3.00;;;8.30;34.90;;;;;;5014484;28;20481;-58
2023/10/15 01:06:38;;;;;;;11.20;3.07;;;8.30;36.50;;;;;;5019289;28;20538;-57
2023/10/15 01:09:10;;;;;;;10.40;2.67;;;8.30;36.00;;;;;;5015492;28;20479;-58
2023/10/15 01:11:37;;;;;;;9.37;2.50;;;8.30;38.10;;;;;;4995319;28;20495;-57
2023/10/15 01:14:04;;;;;;;8.87;2.90;;;8.20;35.50;;;;;;4992711;28;20465;-57
2023/10/15 01:16:35;;;;;;;11.67;2.40;;;8.30;38.60;;;;;;4991754;28;20484;-56
2023/10/15 01:19:14;;;;;;;10.53;2.70;;;8.30;38.60;;;;;;4990576;28;20472;-57
2023/10/15 01:21:49;;;;;;;12.63;3.80;;;8.30;39.00;;;;;;4995804;28;20480;-57
2023/10/15 01:24:18;;;;;;;13.90;4.17;;;8.30;41.30;;;;;;4998858;28;20545;-58
2023/10/15 01:26:51;;;;;;;7.13;2.37;;;8.30;41.40;;;;;;4996546;28;20535;-58
2023/10/15 01:29:23;;;;;;;16.10;3.13;;;8.20;41.50;;;;;;4995727;28;20460;-57
2023/10/15 01:31:51;;;;;;;12.30;3.70;;;8.20;44.20;;;;;;4989997;28;20456;-57
2023/10/15 01:34:21;;;;;;;13.33;3.30;;;8.20;40.10;;;;;;4993003;28;20456;-57
2023/10/15 01:36:48;;;;;;;12.77;2.97;;;8.20;41.30;;;;;;4982434;28;21012;-57
2023/10/15 01:39:21;;;;;;;11.23;2.80;;;8.20;41.40;;;;;;4989340;28;20464;-57
2023/10/15 01:41:50;;;;;;;11.83;3.30;;;8.20;40.70;;;;;;4993669;28;20484;-57
2023/10/15 01:44:19;;;;;;;17.60;2.63;;;8.10;39.30;;;;;;4995737;28;20562;-60
2023/10/15 01:46:48;;;;;;;18.03;3.33;;;8.10;38.00;;;;;;4997135;28;20511;-57
2023/10/15 01:49:26;;;;;;;12.30;2.90;;;8.20;37.90;;;;;;4992501;28;20468;-57
2023/10/15 01:51:53;;;;;;;15.77;2.90;;;8.20;38.10;;;;;;4991290;28;20836;-57
2023/10/15 01:54:21;;;;;;;8.40;2.80;;;8.20;37.50;;;;;;4985554;28;20492;-57
2023/10/15 01:56:49;;;;;;;10.43;3.03;;;8.20;41.40;;;;;;4987451;28;20537;-56
2023/10/15 01:59:16;;;;;;;9.70;3.37;;;8.30;41.50;;;;;;4986182;28;20468;-57
2023/10/15 02:01:49;;;;;;;14.17;2.90;;;8.30;46.60;;;;;;4990048;28;20575;-57
2023/10/15 02:04:18;;;;;;;19.03;2.40;;;8.30;46.90;;;;;;4992067;28;21011;-57
2023/10/15 02:06:44;;;;;;;7.30;3.23;;;8.40;47.00;;;;;;4985671;28;20575;-57
2023/10/15 02:09:19;;;;;;;11.17;2.70;;;8.40;48.30;;;;;;4986977;28;21056;-57
2023/10/15 02:11:48;;;;;;;12.30;2.73;;;8.40;49.10;;;;;;4993018;28;20872;-57
2023/10/15 02:14:23;;;;;;;7.83;2.80;;;8.40;48.70;;;;;;4988817;28;20465;-57
2023/10/15 02:16:51;;;;;;;9.77;3.20;;;8.40;50.20;;;;;;4990713;28;20484;-57
2023/10/15 02:19:31;;;;;;;6.90;2.93;;;8.40;54.50;;;;;;4987329;28;20976;-57
2023/10/15 02:21:58;;;;;;;9.50;2.57;;;8.50;57.70;;;;;;4990971;28;21845;-57
2023/10/15 02:24:25;;;;;;;9.73;2.90;;;8.40;57.30;;;;;;4988409;28;20560;-57
2023/10/15 02:26:51;;;;;;;16.87;3.23;;;8.50;63.30;;;;;;4990676;28;20487;-58
2023/10/15 02:29:34;;;;;;;8.90;3.07;;;8.50;57.80;;;;;;4990078;28;20507;-57
2023/10/15 02:32:08;;;;;;;11.50;2.50;;;8.50;60.80;;;;;;4987794;28;20662;-57
2023/10/15 02:34:40;;;;;;;10.17;2.50;;;8.50;61.30;;;;;;4993919;28;20460;-58
2023/10/15 02:37:10;;;;;;;19.23;3.23;;;8.50;55.30;;;;;;5003379;23;20587;-58
2023/10/15 02:39:43;;;;;;;9.77;2.83;;;8.40;61.30;;;;;;4986184;28;20827;-58
2023/10/15 02:42:10;;;;;;;14.03;3.00;;;8.40;58.10;;;;;;4981670;28;20476;-58
2023/10/15 02:44:38;;;;;;;9.13;2.90;;;8.40;60.60;;;;;;4990458;28;20465;-58
2023/10/15 02:47:10;;;;;;;10.70;2.90;;;8.40;61.60;;;;;;4989279;28;21190;-58
2023/10/15 02:49:50;;;;;;;4.80;2.20;;;8.30;57.10;;;;;;4991344;28;20563;-57
2023/10/15 02:52:19;;;;;;;9.77;2.90;;;8.20;54.60;;;;;;4989274;28;20507;-57
2023/10/15 02:54:46;;;;;;;12.73;2.90;;;8.20;53.60;;;;;;4993705;28;20440;-58
2023/10/15 02:57:15;;;;;;;6.90;2.23;;;8.20;56.60;;;;;;4987228;28;20518;-57
2023/10/15 02:59:50;;;;;;;14.00;3.47;;;8.10;53.40;;;;;;4984532;28;20461;-57
2023/10/15 03:02:18;;;;;;;6.60;2.20;;;8.10;51.50;;;;;;4986531;28;20480;-57
2023/10/15 03:04:49;;;;;;;16.00;3.57;;;8.10;46.40;;;;;;4990092;28;20457;-57
2023/10/15 03:07:19;;;;;;;14.90;2.90;;;8.00;43.30;;;;;;4989992;28;20587;-57
2023/10/15 03:09:48;;;;;;;11.20;3.50;;;7.90;42.80;;;;;;4989536;28;20564;-57
2023/10/15 03:12:16;;;;;;;12.10;3.27;;;7.90;35.70;;;;;;4990448;28;20503;-56
2023/10/15 03:14:44;;;;;;;16.47;3.20;;;7.80;30.40;;;;;;4987303;28;20468;-57
2023/10/15 03:17:14;;;;;;;8.53;2.97;;;7.80;30.60;;;;;;4986353;28;20489;-58
2023/10/15 03:19:42;;;;;;;13.87;3.33;;;7.70;26.60;;;;;;4983376;28;20469;-58
2023/10/15 03:22:12;;;;;;;17.20;3.30;;;7.70;26.90;;;;;;4985362;28;20496;-57
2023/10/15 03:24:43;;;;;;;13.77;2.90;;;7.70;23.10;;;;;;4989757;28;20836;-58
2023/10/15 03:27:11;;;;;;;14.07;2.93;;;7.70;22.60;;;;;;4986926;28;20512;-57
2023/10/15 03:29:37;;;;;;;10.77;3.00;;;7.70;20.00;;;;;;4988883;28;20465;-58
2023/10/15 03:32:09;;;;;;;15.73;3.23;;;7.70;90.00;;;;;;4987291;28;20794;-57
2023/10/15 03:34:35;;;;;;;19.87;3.67;;;7.70;99.90;;;;;;4989158;28;20487;-58
2023/10/15 03:37:02;;;;;;;9.47;2.93;;;7.60;99.90;;;;;;4988028;28;20487;-57
2023/10/15 03:39:53;;;;;;;11.50;3.03;;;7.60;99.90;;;;;;4984789;28;20478;-57
2023/10/15 03:42:26;;;;;;;12.13;3.10;;;7.50;99.90;;;;;;4987753;28;20484;-57
2023/10/15 03:44:59;;;;;;;7.07;2.77;;;7.50;99.90;;;;;;4990188;28;20518;-58
2023/10/15 03:47:27;;;;;;;13.83;3.33;;;7.50;99.90;;;;;;4984278;28;20570;-58
2023/10/15 03:49:55;;;;;;;9.77;3.13;;;7.50;99.90;;;;;;4980779;28;20465;-57
2023/10/15 03:52:23;;;;;;;15.43;2.93;;;7.50;99.90;;;;;;4985118;28;20986;-57
2023/10/15 03:54:50;;;;;;;9.83;2.83;;;7.40;99.90;;;;;;4979832;28;20966;-58
2023/10/15 03:57:18;;;;;;;13.13;3.17;;;7.40;99.90;;;;;;4988648;28;20484;-58
2023/10/15 03:59:51;;;;;;;10.97;3.53;;;7.40;99.90;;;;;;4987201;28;20840;-58
2023/10/15 04:02:22;;;;;;;11.30;2.57;;;7.40;99.90;;;;;;4988605;28;20520;-58
2023/10/15 04:04:56;;;;;;;10.23;2.87;;;7.30;99.90;;;;;;4982505;28;20464;-58
2023/10/15 04:07:25;;;;;;;14.07;3.00;;;7.30;99.90;;;;;;4981968;28;20861;-57
2023/10/15 04:09:51;;;;;;;10.27;2.83;;;7.30;99.90;;;;;;4984309;28;20460;-58
2023/10/15 04:12:19;;;;;;;17.10;3.10;;;7.30;99.90;;;;;;4983962;28;20462;-58
2023/10/15 04:14:46;;;;;;;10.43;2.57;;;7.30;99.90;;;;;;4990848;28;20471;-58
2023/10/15 04:17:15;;;;;;;8.90;2.70;;;7.20;99.90;;;;;;4986638;28;20491;-57
2023/10/15 04:19:43;;;;;;;11.63;2.97;;;7.20;99.90;;;;;;4987394;28;20530;-59
2023/10/15 04:22:14;;;;;;;20.73;3.97;;;7.20;99.90;;;;;;4990554;28;20488;-58
2023/10/15 04:24:41;;;;;;;7.27;2.30;;;7.20;99.90;;;;;;4987703;28;20548;-57
2023/10/15 04:27:14;;;;;;;13.93;3.00;;;7.20;99.90;;;;;;4989970;28;20484;-58
2023/10/15 04:29:48;;;;;;;10.83;2.83;;;7.10;99.90;;;;;;4988645;28;20551;-57
2023/10/15 04:32:22;;;;;;;10.63;3.33;;;7.10;99.90;;;;;;4992371;28;20465;-57
2023/10/15 04:34:51;;;;;;;10.63;3.07;;;7.00;99.90;;;;;;4989907;28;21009;-58
2023/10/15 04:37:20;;;;;;;7.60;2.20;;;7.00;99.90;;;;;;4988428;28;20562;-57
2023/10/15 04:39:51;;;;;;;11.33;3.03;;;6.90;99.90;;;;;;4990049;28;21205;-57
2023/10/15 04:42:21;;;;;;;10.53;3.13;;;6.90;99.90;;;;;;4992927;28;21206;-58
2023/10/15 04:44:49;;;;;;;7.97;2.73;;;6.90;99.90;;;;;;4989969;28;20946;-57
2023/10/15 04:47:20;;;;;;;12.90;3.23;;;6.90;99.90;;;;;;4991253;28;20542;-57
2023/10/15 04:49:47;;;;;;;12.03;3.40;;;6.90;99.90;;;;;;4988566;28;20538;-57
2023/10/15 04:52:18;;;;;;;12.50;3.40;;;6.90;99.90;;;;;;4988501;28;20880;-57
2023/10/15 04:54:46;;;;;;;11.93;2.93;;;6.80;99.90;;;;;;4992508;28;20988;-58
2023/10/15 04:57:13;;;;;;;15.40;3.40;;;6.80;99.90;;;;;;4992013;28;20476;-58
2023/10/15 04:59:41;;;;;;;12.90;2.83;;;6.80;99.90;;;;;;4993364;28;20527;-58
2023/10/15 05:02:08;;;;;;;9.60;2.57;;;6.80;99.90;;;;;;4988147;28;20489;-58
2023/10/15 05:04:35;;;;;;;7.67;2.40;;;6.80;99.90;;;;;;4988760;28;20496;-57
2023/10/15 05:07:01;;;;;;;20.77;3.93;;;6.70;99.90;;;;;;4992856;28;20492;-57
2023/10/15 05:09:31;;;;;;;4.57;2.43;;;6.70;99.90;;;;;;4994357;28;20503;-57
2023/10/15 05:11:59;;;;;;;14.10;3.50;;;6.70;99.90;;;;;;4987283;28;20917;-56
2023/10/15 05:14:25;;;;;;;9.63;3.20;;;6.70;99.90;;;;;;4992496;28;20884;-59
2023/10/15 05:16:52;;;;;;;8.60;3.87;;;6.70;99.90;;;;;;4992290;28;20624;-57
2023/10/15 05:19:19;;;;;;;13.17;4.70;;;6.70;99.90;;;;;;4987779;28;20491;-57
2023/10/15 05:21:47;;;;;;;13.77;3.50;;;6.60;99.90;;;;;;4987286;28;20498;-58
2023/10/15 05:24:18;;;;;;;11.07;2.60;;;6.70;99.90;;;;;;4989380;28;20468;-57
2023/10/15 05:26:47;;;;;;;10.63;3.37;;;6.70;99.90;;;;;;4985477;28;20488;-57
2023/10/15 05:29:15;;;;;;;12.17;3.00;;;6.70;99.90;;;;;;4988085;28;20469;-58
2023/10/15 05:31:42;;;;;;;24.60;3.47;;;6.70;99.90;;;;;;4989073;28;20867;-57
2023/10/15 05:34:09;;;;;;;15.20;2.70;;;6.70;99.90;;;;;;4992729;28;20490;-57
2023/10/15 05:36:36;;;;;;;13.80;3.57;;;6.70;99.90;;;;;;4984377;28;20489;-59
2023/10/15 05:39:04;;;;;;;14.40;2.73;;;6.70;99.90;;;;;;4991939;28;20491;-58
2023/10/15 05:41:32;;;;;;;15.10;3.87;;;6.70;99.90;;;;;;4987039;28;20468;-58
2023/10/15 05:43:58;;;;;;;10.00;3.20;;;6.60;99.90;;;;;;4992373;28;20488;-59
2023/10/15 05:46:27;;;;;;;11.10;2.80;;;6.70;99.90;;;;;;4987017;28;20547;-56
2023/10/15 05:48:54;;;;;;;6.77;2.20;;;6.70;99.90;;;;;;4992568;28;20464;-59
2023/10/15 05:51:21;;;;;;;6.50;2.53;;;6.60;99.90;;;;;;4986118;28;20551;-59
2023/10/15 05:53:48;;;;;;;11.77;2.97;;;6.60;99.90;;;;;;4993057;28;20460;-59
2023/10/15 05:56:16;;;;;;;15.20;3.50;;;6.60;99.90;;;;;;4990698;28;20492;-60
2023/10/15 05:58:42;;;;;;;10.40;3.23;;;6.60;99.90;;;;;;4992139;28;20922;-59
2023/10/15 06:01:09;;;;;;;19.27;3.10;;;6.60;99.90;;;;;;4987104;28;20951;-59
2023/10/15 06:03:37;;;;;;;10.17;3.40;;;6.60;99.90;;;;;;4984795;28;21002;-59
2023/10/15 06:06:05;;;;;;;9.40;3.37;;;6.60;99.90;;;;;;4990334;28;20484;-59
2023/10/15 06:08:31;;;;;;;10.53;3.07;;;6.70;99.90;;;;;;4990393;28;20468;-58
2023/10/15 06:10:58;;;;;;;9.47;2.67;;;6.70;99.90;;;;;;4989380;28;20473;-57
2023/10/15 06:13:25;;;;;;;16.83;3.37;;;6.60;99.90;;;;;;4990513;28;20460;-57
2023/10/15 06:15:52;;;;;;;16.20;2.83;;;6.60;99.90;;;;;;4987633;28;20485;-59
2023/10/15 06:18:19;;;;;;;10.67;3.00;;;6.70;99.90;;;;;;4987228;28;20465;-59
2023/10/15 06:20:48;;;;;;;11.63;3.17;;;6.60;99.90;;;;;;4982150;28;20457;-59
2023/10/15 06:23:14;;;;;;;8.83;2.73;;;6.70;99.90;;;;;;4989546;28;20425;-58
2023/10/15 06:25:42;;;;;;;13.60;3.50;;;6.70;99.90;;;;;;4988287;28;20460;-58
2023/10/15 06:28:13;;;;;;;11.47;3.17;;;6.70;99.90;;;;;;4992335;28;20519;-59
2023/10/15 06:30:41;;;;;;;11.27;3.37;;;6.80;99.90;;;;;;4984915;28;20548;-58
2023/10/15 06:33:07;;;;;;;17.80;3.17;;;6.80;99.90;;;;;;4988681;28;20950;-59
2023/10/15 06:35:34;;;;;;;13.93;4.40;;;6.80;99.90;;;;;;4988812;28;20460;-59
2023/10/15 06:38:02;;;;;;;17.23;3.10;;;6.80;99.90;;;;;;4988253;28;20970;-59
2023/10/15 06:40:30;;;;;;;8.53;2.50;;;6.90;99.90;;;;;;4988658;28;20472;-58
2023/10/15 06:43:00;;;;;;;11.47;2.93;;;6.90;99.90;;;;;;4990939;28;21047;-60
2023/10/15 06:45:28;;;;;;;16.13;3.00;;;6.90;99.90;;;;;;4991427;28;20963;-58
2023/10/15 06:47:55;;;;;;;13.60;3.00;;;7.00;99.90;;;;;;4992435;28;20501;-58
2023/10/15 06:50:22;;;;;;;11.83;2.83;;;7.00;99.90;;;;;;4986824;28;20469;-58
2023/10/15 06:52:49;;;;;;;10.70;2.47;;;7.00;99.90;;;;;;4982829;28;20456;-58
2023/10/15 06:55:19;;;;;;;11.47;3.17;;;7.00;99.90;;;;;;4986857;28;20464;-59
2023/10/15 06:57:47;;;;;;;11.97;3.10;;;7.20;99.90;;;;;;4982046;28;20495;-58
2023/10/15 07:00:21;;;;;;;21.07;3.40;;;7.20;99.90;;;;;;4988753;28;20468;-59
2023/10/15 07:02:48;;;;;;;10.53;3.10;;;7.30;99.90;;;;;;4985265;28;20480;-59
2023/10/15 07:05:16;;;;;;;11.53;3.13;;;7.30;99.90;;;;;;4984473;28;20883;-60
2023/10/15 07:07:45;;;;;;;11.17;2.87;;;7.30;99.90;;;;;;4981601;28;20484;-59
2023/10/15 07:10:15;;;;;;;13.73;2.63;;;7.40;99.90;;;;;;4983050;28;21168;-59
2023/10/15 07:12:44;;;;;;;9.73;2.90;;;7.40;99.90;;;;;;4986694;28;20465;-59
2023/10/15 07:15:13;;;;;;;6.37;2.80;;;7.50;99.90;;;;;;4990337;28;20560;-59
2023/10/15 07:17:40;;;;;;;18.57;4.90;;;7.50;99.90;;;;;;4992230;28;20468;-59
2023/10/15 07:20:14;;;;;;;14.77;2.87;;;7.60;99.90;;;;;;4985583;28;20468;-57
2023/10/15 07:22:41;;;;;;;9.80;3.07;;;7.60;99.90;;;;;;4988252;28;20570;-58
2023/10/15 07:25:09;;;;;;;14.60;3.43;;;7.60;99.90;;;;;;4989436;28;20461;-58
2023/10/15 07:27:36;;;;;;;8.47;2.63;;;7.60;99.90;;;;;;4985382;28;21085;-57
2023/10/15 07:30:06;;;;;;;5.97;2.37;;;7.70;99.90;;;;;;4990874;28;20503;-59
2023/10/15 07:32:34;;;;;;;14.73;2.80;;;7.70;99.90;;;;;;4983284;28;20491;-59
2023/10/15 07:35:00;;;;;;;7.43;2.63;;;7.80;99.90;;;;;;4987365;28;20496;-59
2023/10/15 07:37:28;;;;;;;10.33;2.97;;;7.80;99.90;;;;;;4979539;28;20560;-58
2023/10/15 07:39:55;;;;;;;14.43;3.53;;;7.80;99.90;;;;;;4981235;28;20500;-60
2023/10/15 07:42:23;;;;;;;8.67;3.10;;;7.80;99.90;;;;;;4981254;28;20472;-58
2023/10/15 07:44:49;;;;;;;13.63;2.77;;;7.80;99.90;;;;;;4984719;28;20468;-59
2023/10/15 07:47:17;;;;;;;5.83;3.00;;;7.80;99.90;;;;;;4985901;28;20952;-59
2023/10/15 07:49:45;;;;;;;4.40;2.60;;;7.80;99.90;;;;;;4986734;28;20547;-59
2023/10/15 07:52:12;;;;;;;9.93;2.60;;;7.80;99.90;;;;;;4990901;28;20468;-58
2023/10/15 07:54:38;;;;;;;5.30;2.40;;;8.00;99.90;;;;;;4989348;28;20484;-58
2023/10/15 07:57:07;;;;;;;16.23;2.67;;;8.00;99.90;;;;;;4987426;28;20573;-59
2023/10/15 07:59:34;;;;;;;10.90;3.13;;;8.20;99.90;;;;;;4984952;28;20465;-58
2023/10/15 08:02:00;;;;;;;9.83;3.40;;;8.20;99.90;;;;;;4982914;28;20480;-59
2023/10/15 08:04:28;;;;;;;6.83;2.10;;;8.30;99.90;;;;;;4986122;28;20523;-60
2023/10/15 08:06:55;;;;;;;9.83;2.77;;;8.20;93.80;;;;;;4988885;28;20484;-59
2023/10/15 08:09:25;;;;;;;9.00;2.80;;;8.30;99.90;;;;;;4994802;28;20452;-59
2023/10/15 08:11:52;;;;;;;6.27;2.47;;;8.30;99.90;;;;;;4987771;28;20468;-59
2023/10/15 08:14:18;;;;;;;8.50;2.87;;;8.30;99.90;;;;;;4989696;28;20942;-59
2023/10/15 08:16:45;;;;;;;7.27;2.47;;;8.50;99.90;;;;;;4991737;28;20572;-59
2023/10/15 08:19:12;;;;;;;7.93;2.37;;;8.40;23.00;;;;;;4988882;28;20835;-59
2023/10/15 08:21:39;;;;;;;12.03;3.30;;;8.50;25.80;;;;;;4990681;28;20890;-59
2023/10/15 08:24:07;;;;;;;4.90;2.10;;;8.50;20.80;;;;;;4994491;28;21314;-60
2023/10/15 08:26:33;;;;;;;9.40;2.77;;;8.50;26.40;;;;;;4993204;28;20519;-59
2023/10/15 08:29:00;;;;;;;13.10;2.83;;;8.60;87.60;;;;;;4993401;28;20492;-59
2023/10/15 08:31:27;;;;;;;3.53;2.17;;;8.60;32.00;;;;;;4983679;28;20469;-60
2023/10/15 08:33:53;;;;;;;7.77;2.60;;;8.70;26.90;;;;;;4988833;28;20464;-60
2023/10/15 08:36:21;;;;;;;6.53;2.17;;;8.80;30.60;;;;;;5010537;23;20467;-62
2023/10/15 08:38:49;;;;;;;9.03;1.77;;;8.90;43.90;;;;;;5025462;28;20455;-62
2023/10/15 08:41:20;;;;;;;5.07;1.63;;;8.80;40.30;;;;;;5026681;28;20972;-62
2023/10/15 08:43:47;;;;;;;3.93;1.90;;;8.80;47.10;;;;;;5030882;28;20486;-61
2023/10/15 08:46:14;;;;;;;6.13;2.07;;;8.80;46.90;;;;;;5031615;28;20564;-61
2023/10/15 08:48:42;;;;;;;6.67;2.17;;;8.80;47.70;;;;;;5032374;28;20469;-58
2023/10/15 08:51:09;;;;;;;6.57;1.87;;;8.70;51.90;;;;;;5027511;28;20956;-59
2023/10/15 08:53:37;;;;;;;5.47;2.10;;;8.80;53.60;;;;;;5033280;28;20484;-58
2023/10/15 08:56:06;;;;;;;5.50;1.97;;;8.80;49.10;;;;;;5025095;28;20456;-59
2023/10/15 08:58:34;;;;;;;6.70;2.30;;;8.90;51.00;;;;;;5024712;28;20471;-58
2023/10/15 09:01:03;;;;;;;5.43;1.80;;;8.90;49.80;;;;;;5023097;28;21017;-58
2023/10/15 09:03:30;;;;;;;5.67;1.80;;;8.90;57.60;;;;;;5037005;28;20486;-59
2023/10/15 09:05:57;;;;;;;6.67;1.77;;;9.00;55.00;;;;;;5040636;28;20474;-57
2023/10/15 09:08:24;;;;;;;5.13;1.93;;;9.10;56.10;;;;;;5033557;28;20565;-57
2023/10/15 09:10:52;;;;;;;4.77;1.77;;;9.00;62.60;;;;;;5019289;28;20464;-57
2023/10/15 09:13:21;;;;;;;5.60;1.80;;;9.10;54.00;;;;;;5040527;28;20956;-57
2023/10/15 09:15:49;;;;;;;4.27;1.70;;;9.20;51.20;;;;;;5032110;28;20521;-59
2023/10/15 09:18:17;;;;;;;6.50;2.50;;;9.10;54.70;;;;;;5031411;28;20499;-58
2023/10/15 09:20:46;;;;;;;4.90;1.97;;;9.10;58.60;;;;;;5030747;28;20541;-58
2023/10/15 09:23:14;;;;;;;6.87;1.70;;;9.10;53.20;;;;;;5031018;28;20482;-59
2023/10/15 09:25:42;;;;;;;5.43;1.67;;;9.10;58.70;;;;;;5027297;28;20463;-58
2023/10/15 09:28:09;;;;;;;4.57;1.60;;;9.30;66.60;;;;;;5032137;28;20497;-58
2023/10/15 09:30:38;;;;;;;2.90;1.93;;;9.50;68.90;;;;;;5029996;28;20439;-58
2023/10/15 09:33:12;;;;;;;6.07;1.90;;;10.00;94.50;;;;;;5031161;28;20503;-58
2023/10/15 09:35:38;;;;;;;5.90;1.80;;;10.40;99.90;;;;;;5029574;28;20462;-58
2023/10/15 09:38:10;;;;;;;3.93;1.67;;;9.90;95.30;;;;;;5036884;28;20498;-58
2023/10/15 09:40:36;;;;;;;5.10;1.70;;;9.90;94.10;;;;;;5034607;28;20469;-60
2023/10/15 09:43:04;;;;;;;3.77;1.97;;;10.20;97.50;;;;;;5028593;28;20467;-56
2023/10/15 09:45:31;;;;;;;5.93;1.97;;;11.00;99.90;;;;;;5027891;28;20454;-57
2023/10/15 09:47:59;;;;;;;5.33;1.70;;;10.80;99.90;;;;;;5027890;28;21003;-58
2023/10/15 09:50:27;;;;;;;1.83;1.20;;;10.80;99.90;;;;;;5021828;28;20951;-57
2023/10/15 09:52:56;;;;;;;5.77;1.30;;;10.70;99.90;;;;;;5021762;28;20468;-57
2023/10/15 09:55:26;;;;;;;5.80;1.87;;;11.10;99.90;;;;;;5025550;28;20485;-57
2023/10/15 09:57:55;;;;;;;1.57;1.33;;;11.10;99.90;;;;;;5026997;28;21075;-58
2023/10/15 10:00:32;;;;;;;5.53;2.03;;;11.20;99.90;;;;;;5020932;28;20975;-58
2023/10/15 10:03:17;;;;;;;3.43;1.67;;;11.00;99.90;;;;;;5029335;28;20558;-58
2023/10/15 10:05:56;;;;;;;3.30;1.30;;;10.90;99.90;;;;;;5028558;28;20546;-57
2023/10/15 10:08:31;;;;;;;4.53;1.37;;;10.90;99.90;;;;;;5025349;28;20470;-57
2023/10/15 10:11:16;;;;;;;5.87;1.50;;;10.70;99.90;;;;;;5018546;28;20466;-58
2023/10/15 10:14:13;;;;;;;2.60;1.40;;;10.50;99.90;;;;;;5027503;28;20561;-57
2023/10/15 10:16:42;;;;;;;3.80;1.63;;;10.40;99.90;;;;;;5025759;28;20548;-58
2023/10/15 10:19:10;;;;;;;1.53;1.10;;;10.40;99.90;;;;;;5030994;28;20547;-57
2023/10/15 10:21:38;;;;;;;3.50;1.27;;;10.30;99.90;;;;;;5027973;28;20873;-57
2023/10/15 10:24:08;;;;;;;4.67;1.40;;;10.30;99.90;;;;;;5025413;28;20479;-56
2023/10/15 10:26:39;;;;;;;5.20;1.30;;;10.20;99.90;;;;;;5026813;28;20490;-56
2023/10/15 10:29:09;;;;;;;6.27;1.73;;;10.30;99.90;;;;;;5027572;28;20472;-56
2023/10/15 10:31:36;;;;;;;3.90;1.10;;;10.30;99.90;;;;;;5029624;28;20463;-57
2023/10/15 10:34:04;;;;;;;3.60;1.20;;;10.30;99.90;;;;;;5025595;28;20535;-57
2023/10/15 10:36:38;;;;;;;2.33;1.27;;;10.20;99.90;;;;;;5022615;28;20479;-56
2023/10/15 10:39:13;;;;;;;5.20;1.67;;;10.30;99.90;;;;;;5027801;28;20467;-56
2023/10/15 10:41:41;;;;;;;1.30;1.20;;;10.40;99.90;;;;;;5016941;28;20478;-56
2023/10/15 10:44:09;;;;;;;2.07;1.03;;;10.20;99.90;;;;;;5025295;28;20482;-57
2023/10/15 10:46:43;;;;;;;3.80;1.27;;;10.30;99.90;;;;;;5024438;28;20893;-58
2023/10/15 10:49:13;;;;;;;2.70;1.20;;;10.30;99.90;;;;;;5024887;28;20523;-57
2023/10/15 10:51:41;;;;;;;5.37;1.57;;;10.40;99.90;;;;;;5029742;28;20442;-57
2023/10/15 10:54:29;;;;;;;6.40;1.60;;;10.50;99.90;;;;;;5027441;28;20951;-57
2023/10/15 10:57:08;;;;;;;1.73;1.07;;;10.50;99.90;;;;;;5012518;28;20546;-57
2023/10/15 10:59:36;;;;;;;6.30;2.40;;;10.50;99.90;;;;;;5026331;28;20460;-57
2023/10/15 11:02:05;;;;;;;2.90;1.00;;;10.70;99.90;;;;;;5022908;28;20503;-58
2023/10/15 11:04:32;;;;;;;2.83;1.10;;;10.90;99.90;;;;;;5027991;28;20491;-58
2023/10/15 11:07:01;;;;;;;4.40;1.50;;;11.10;99.90;;;;;;5028598;28;20483;-58
2023/10/15 11:09:28;;;;;;;1.97;1.40;;;11.30;99.90;;;;;;5034318;28;20496;-58
2023/10/15 11:11:57;;;;;;;2.70;1.37;;;11.30;99.90;;;;;;5029047;28;20469;-57
2023/10/15 11:14:24;;;;;;;3.73;1.50;;;11.10;99.90;;;;;;5019329;28;20469;-58
2023/10/15 11:16:52;;;;;;;3.47;1.30;;;10.70;99.90;;;;;;5026234;28;20487;-58
2023/10/15 11:19:21;;;;;;;2.53;1.40;;;10.80;99.90;;;;;;5028379;28;20524;-58
2023/10/15 11:21:48;;;;;;;3.30;1.50;;;10.70;99.90;;;;;;5029635;28;20471;-58
2023/10/15 11:24:17;;;;;;;4.00;1.10;;;10.70;99.90;;;;;;5022883;28;20479;-58
2023/10/15 11:26:45;;;;;;;4.40;1.40;;;10.80;99.90;;;;;;5025369;28;20486;-58
2023/10/15 11:29:13;;;;;;;6.00;1.83;;;10.90;99.90;;;;;;5025009;28;20465;-58
2023/10/15 11:31:44;;;;;;;2.40;1.47;;;10.90;99.90;;;;;;5015882;28;20459;-58
2023/10/15 11:34:11;;;;;;;3.70;1.40;;;11.00;99.90;;;;;;5027406;28;20898;-56
2023/10/15 11:36:39;;;;;;;3.40;1.23;;;11.00;99.90;;;;;;5027356;28;20536;-58
2023/10/15 11:39:09;;;;;;;3.97;1.10;;;11.00;99.90;;;;;;5024416;28;20976;-58
2023/10/15 11:41:38;;;;;;;2.10;1.23;;;10.90;99.90;;;;;;5027176;28;20455;-56
2023/10/15 11:44:07;;;;;;;4.50;1.60;;;11.20;99.90;;;;;;5025926;28;20482;-57
2023/10/15 11:46:36;;;;;;;3.03;1.33;;;11.50;99.90;;;;;;5027710;28;20478;-57
2023/10/15 11:49:03;;;;;;;3.70;1.63;;;11.60;99.90;;;;;;5022482;28;20494;-56
2023/10/15 11:51:30;;;;;;;3.40;1.40;;;11.70;99.90;;;;;;5029043;28;20840;-57
2023/10/15 11:54:00;;;;;;;2.93;1.60;;;11.50;99.90;;;;;;5029996;28;20459;-57
2023/10/15 11:56:28;;;;;;;3.03;1.17;;;11.60;99.90;;;;;;5026086;28;20935;-56
2023/10/15 11:58:57;;;;;;;6.83;1.77;;;11.60;99.90;;;;;;5027284;28;21022;-56
2023/10/15 12:01:24;;;;;;;3.13;1.30;;;11.70;99.90;;;;;;5018859;28;20459;-58
2023/10/15 12:03:51;;;;;;;2.07;1.27;;;12.00;99.90;;;;;;5022791;28;20454;-58
2023/10/15 12:06:18;;;;;;;6.70;1.77;;;12.20;99.90;;;;;;5023456;28;20502;-56
2023/10/15 12:08:44;;;;;;;1.90;1.30;;;12.80;99.90;;;;;;5022383;28;20459;-57
2023/10/15 12:11:11;;;;;;;5.70;1.47;;;12.60;99.90;;;;;;5023941;28;20439;-57
2023/10/15 12:13:39;;;;;;;5.27;1.20;;;13.50;99.90;;;;;;5024989;28;20483;-57
2023/10/15 12:16:07;;;;;;;2.83;1.13;;;12.60;99.90;;;;;;5027145;28;20853;-57
2023/10/15 12:18:33;;;;;;;2.63;0.97;;;12.00;99.90;;;;;;5022811;28;20751;-56
2023/10/15 12:21:00;;;;;;;1.30;1.20;;;11.30;99.90;;;;;;5027293;28;20462;-57
2023/10/15 12:23:28;;;;;;;1.93;1.30;;;11.20;99.90;;;;;;5020453;28;20467;-56
2023/10/15 12:25:54;;;;;;;4.73;1.40;;;10.90;99.90;;;;;;5019084;28;20929;-56
2023/10/15 12:28:21;;;;;;;1.40;1.17;;;11.00;99.90;;;;;;5026890;28;20462;-57
2023/10/15 12:30:48;;;;;;;2.37;1.70;;;11.20;99.90;;;;;;5023293;28;20517;-56
2023/10/15 12:33:16;;;;;;;6.63;1.50;;;11.50;99.90;;;;;;5018555;28;20948;-57
2023/10/15 12:35:43;;;;;;;2.10;1.00;;;11.60;99.90;;;;;;5029140;28;20940;-60
2023/10/15 12:38:16;;;;;;;2.00;1.20;;;11.60;99.90;;;;;;5036775;28;20481;-57
2023/10/15 12:40:45;;;;;;;1.23;0.77;;;11.60;99.90;;;;;;5040680;28;20474;-58
2023/10/15 12:43:15;;;;;;;2.33;1.53;;;11.70;99.90;;;;;;5046521;28;20473;-58
2023/10/15 12:45:43;;;;;;;3.17;1.30;;;11.70;1.40;;;;;;5033787;28;20497;-57
2023/10/15 12:48:10;;;;;;;1.77;1.10;;;11.90;99.90;;;;;;5037633;28;20485;-58
2023/10/15 12:50:38;;;;;;;4.10;1.40;;;12.10;1.40;;;;;;5039246;28;20458;-57
2023/10/15 12:53:05;;;;;;;3.47;1.13;;;12.20;99.90;;;;;;5037134;28;20457;-56
2023/10/15 12:55:31;;;;;;;1.90;1.10;;;12.30;99.90;;;;;;5030369;28;20505;-57
2023/10/15 12:57:58;;;;;;;1.00;0.90;;;12.20;99.90;;;;;;5032689;28;20540;-58
2023/10/15 13:00:27;;;;;;;2.40;1.53;;;12.20;99.90;;;;;;5030989;28;20470;-57